Time;durP1;ratioP1;P1;durP2;ratioP2;P2;SDS_P1;SDS_P2;PMS_P1;PMS_P2;Temp;Humidity;BMP_temperature;BMP_pressure;BME280_temperature;BME280_humidity;BME280_pressure;Samples;Min_cycle;Max_cycle;Signal;HPM_P1;HPM_P2
2021/03/01 00:00:29;;;;;;;4.13;3.15;;;11.50;76.10;;;;;;5134367;27;20125;-40
2021/03/01 00:02:55;;;;;;;4.20;3.20;;;11.50;76.10;;;;;;5134205;27;20091;-42
2021/03/01 00:05:22;;;;;;;4.75;3.60;;;11.50;76.10;;;;;;5134236;27;20043;-40
2021/03/01 00:07:49;;;;;;;4.90;3.33;;;11.50;76.10;;;;;;5133860;27;20039;-40
2021/03/01 00:10:16;;;;;;;4.57;3.15;;;11.50;76.10;;;;;;5134185;27;20494;-40
2021/03/01 00:12:42;;;;;;;4.57;3.50;;;11.50;76.10;;;;;;5133922;27;20138;-40
2021/03/01 00:15:10;;;;;;;4.63;3.53;;;11.50;76.10;;;;;;5133590;27;20044;-41
2021/03/01 00:17:36;;;;;;;4.07;3.10;;;11.50;76.10;;;;;;5134145;27;20483;-39
2021/03/01 00:20:05;;;;;;;3.97;2.83;;;11.50;76.10;;;;;;5133641;27;20047;-40
2021/03/01 00:22:31;;;;;;;4.20;3.03;;;11.50;76.10;;;;;;5133915;27;20517;-41
2021/03/01 00:24:56;;;;;;;4.35;3.45;;;11.50;76.10;;;;;;5133279;27;20062;-41
2021/03/01 00:27:22;;;;;;;5.38;3.47;;;11.50;76.10;;;;;;5134031;27;20074;-41
2021/03/01 00:29:48;;;;;;;5.80;4.10;;;11.50;76.10;;;;;;5133785;27;20089;-41
2021/03/01 00:32:14;;;;;;;5.10;3.30;;;11.50;76.10;;;;;;5133842;27;20096;-41
2021/03/01 00:34:39;;;;;;;5.03;3.53;;;11.50;76.10;;;;;;5133470;28;20546;-38
2021/03/01 00:37:05;;;;;;;5.18;3.53;;;11.50;76.10;;;;;;5133703;28;20043;-39
2021/03/01 00:39:31;;;;;;;4.05;3.13;;;11.50;76.10;;;;;;5133345;28;20138;-39
2021/03/01 00:41:57;;;;;;;4.40;3.50;;;11.50;76.10;;;;;;5133712;28;20043;-42
2021/03/01 00:44:22;;;;;;;4.95;3.40;;;11.50;76.10;;;;;;5134006;28;20039;-42
2021/03/01 00:46:48;;;;;;;3.92;2.88;;;11.50;76.10;;;;;;5133179;28;20083;-44
2021/03/01 00:49:14;;;;;;;4.22;3.30;;;11.50;76.10;;;;;;5133248;28;20039;-43
2021/03/01 00:51:40;;;;;;;4.85;3.33;;;11.50;76.10;;;;;;5133449;27;20127;-42
2021/03/01 00:54:05;;;;;;;4.15;3.20;;;11.50;76.10;;;;;;5135068;27;20506;-44
2021/03/01 00:56:31;;;;;;;4.38;2.97;;;11.40;76.00;;;;;;5137144;27;20100;-45
2021/03/01 00:58:57;;;;;;;4.10;3.00;;;11.50;76.10;;;;;;5137912;27;20396;-42
2021/03/01 01:01:23;;;;;;;3.85;3.05;;;11.50;76.10;;;;;;5137837;27;20093;-41
2021/03/01 01:03:48;;;;;;;4.63;3.38;;;11.40;76.00;;;;;;5137400;27;20067;-44
2021/03/01 01:06:14;;;;;;;4.10;3.08;;;11.50;76.10;;;;;;5137866;27;20452;-42
2021/03/01 01:08:40;;;;;;;4.75;3.03;;;11.50;76.10;;;;;;5137086;27;20054;-42
2021/03/01 01:11:06;;;;;;;4.18;3.13;;;11.40;76.10;;;;;;5137007;27;20047;-41
2021/03/01 01:13:32;;;;;;;4.72;3.00;;;11.40;76.10;;;;;;5137685;27;20112;-42
2021/03/01 01:15:59;;;;;;;3.78;3.10;;;11.50;76.10;;;;;;5137288;27;20410;-41
2021/03/01 01:18:25;;;;;;;4.78;3.08;;;11.50;76.10;;;;;;5137004;27;20042;-41
2021/03/01 01:20:51;;;;;;;4.72;3.28;;;11.50;76.70;;;;;;5137421;27;20046;-43
2021/03/01 01:23:17;;;;;;;3.20;2.67;;;11.40;76.00;;;;;;5137624;27;20043;-42
2021/03/01 01:25:43;;;;;;;3.33;2.80;;;11.50;76.10;;;;;;5136894;27;20096;-40
2021/03/01 01:28:09;;;;;;;4.03;3.08;;;11.50;76.10;;;;;;5136470;27;20047;-41
2021/03/01 01:30:35;;;;;;;3.88;3.08;;;11.50;76.10;;;;;;5137052;27;20054;-40
2021/03/01 01:33:01;;;;;;;3.63;2.40;;;11.40;76.10;;;;;;5137307;27;20043;-41
2021/03/01 01:35:27;;;;;;;3.50;2.70;;;11.50;76.10;;;;;;5136894;27;20039;-42
2021/03/01 01:37:53;;;;;;;2.83;2.50;;;11.40;76.10;;;;;;5137160;27;20528;-40
2021/03/01 01:40:20;;;;;;;4.15;2.75;;;11.40;76.10;;;;;;5136874;27;20069;-42
2021/03/01 01:42:47;;;;;;;3.45;2.80;;;11.40;76.10;;;;;;5136413;27;20051;-43
2021/03/01 01:45:19;;;;;;;4.22;2.75;;;11.40;76.10;;;;;;5137285;27;20058;-43
2021/03/01 01:47:45;;;;;;;2.95;2.10;;;11.50;76.10;;;;;;5136494;27;20047;-44
2021/03/01 01:50:12;;;;;;;3.33;2.97;;;11.40;76.10;;;;;;5136643;27;20402;-41
2021/03/01 01:52:38;;;;;;;3.38;2.88;;;11.40;76.10;;;;;;5136560;27;20050;-42
2021/03/01 01:55:06;;;;;;;3.42;2.67;;;11.40;76.10;;;;;;5136578;27;20410;-42
2021/03/01 01:57:32;;;;;;;3.80;2.60;;;11.40;76.10;;;;;;5136326;27;20039;-42
2021/03/01 01:59:59;;;;;;;3.85;2.78;;;11.40;76.10;;;;;;5136036;27;20043;-41
2021/03/01 02:02:25;;;;;;;3.28;2.83;;;11.40;76.10;;;;;;5136888;27;20066;-41
2021/03/01 02:04:58;;;;;;;3.28;2.47;;;11.40;76.10;;;;;;5136259;27;20043;-42
2021/03/01 02:08:05;;;;;;;3.17;2.45;;;11.40;76.10;;;;;;5136420;27;20043;-40
2021/03/01 02:10:48;;;;;;;2.95;2.20;;;11.40;76.00;;;;;;5077759;28;20039;-41
2021/03/01 02:13:33;;;;;;;3.55;2.55;;;11.40;76.10;;;;;;5092671;28;20129;-43
2021/03/01 02:16:08;;;;;;;3.75;2.88;;;11.40;76.10;;;;;;5078061;28;20144;-39
2021/03/01 02:18:34;;;;;;;3.28;2.58;;;11.40;76.10;;;;;;5093052;28;20591;-41
2021/03/01 02:21:26;;;;;;;3.38;2.55;;;11.40;76.10;;;;;;5092987;28;20115;-39
2021/03/01 02:23:52;;;;;;;3.42;2.40;;;11.40;76.10;;;;;;5090763;28;20048;-39
2021/03/01 02:26:26;;;;;;;3.10;2.55;;;11.40;76.10;;;;;;5093063;28;20044;-40
2021/03/01 02:28:58;;;;;;;3.20;2.75;;;11.40;76.10;;;;;;5090703;28;20095;-41
2021/03/01 02:31:26;;;;;;;3.33;2.33;;;11.40;76.10;;;;;;5092456;28;20052;-39
2021/03/01 02:33:58;;;;;;;3.20;2.70;;;11.40;76.10;;;;;;5093194;28;20113;-43
2021/03/01 02:36:28;;;;;;;3.45;2.72;;;11.40;76.20;;;;;;5092522;28;20144;-42
2021/03/01 02:38:55;;;;;;;3.40;2.35;;;11.40;76.10;;;;;;5092533;28;20060;-43
2021/03/01 02:41:23;;;;;;;2.80;2.38;;;11.40;76.10;;;;;;5092816;28;20500;-40
2021/03/01 02:43:51;;;;;;;3.13;2.47;;;11.40;76.10;;;;;;5098120;28;20059;-42
2021/03/01 02:46:17;;;;;;;3.85;2.70;;;11.40;76.10;;;;;;5115333;28;20082;-43
2021/03/01 02:48:44;;;;;;;3.20;2.60;;;11.40;76.10;;;;;;5133854;27;20047;-41
2021/03/01 02:51:11;;;;;;;4.10;2.55;;;11.40;76.20;;;;;;5135503;27;20046;-41
2021/03/01 02:53:39;;;;;;;3.05;2.47;;;11.40;76.10;;;;;;5135233;27;20050;-40
2021/03/01 02:56:06;;;;;;;3.30;2.45;;;11.40;76.20;;;;;;5135235;27;20043;-41
2021/03/01 02:58:34;;;;;;;3.38;2.47;;;11.40;76.10;;;;;;5135222;27;20517;-40
2021/03/01 03:01:02;;;;;;;3.42;2.70;;;11.40;76.10;;;;;;5135273;27;20062;-40
2021/03/01 03:03:28;;;;;;;2.90;2.30;;;11.40;76.20;;;;;;5135146;27;20108;-41
2021/03/01 03:05:55;;;;;;;3.17;2.67;;;11.40;76.20;;;;;;5135511;27;20035;-40
2021/03/01 03:08:22;;;;;;;3.00;2.38;;;11.40;76.20;;;;;;5135268;27;20047;-40
2021/03/01 03:10:51;;;;;;;2.50;2.25;;;11.40;76.20;;;;;;5135169;27;20059;-40
2021/03/01 03:13:19;;;;;;;3.00;2.45;;;11.40;76.20;;;;;;5135342;27;20100;-40
2021/03/01 03:15:49;;;;;;;3.10;2.38;;;11.30;76.10;;;;;;5134406;27;20088;-39
2021/03/01 03:18:17;;;;;;;2.55;2.25;;;11.40;76.20;;;;;;5133900;27;20114;-39
2021/03/01 03:20:43;;;;;;;3.03;2.38;;;11.30;76.10;;;;;;5134762;27;20478;-38
2021/03/01 03:23:08;;;;;;;3.03;2.50;;;11.30;76.10;;;;;;5135081;27;20091;-40
2021/03/01 03:25:35;;;;;;;3.38;2.50;;;11.30;76.10;;;;;;5134582;27;20043;-39
2021/03/01 03:28:03;;;;;;;2.95;2.22;;;11.30;76.10;;;;;;5135052;27;20039;-39
2021/03/01 03:30:29;;;;;;;3.10;2.50;;;11.30;76.10;;;;;;5134287;27;20110;-42
2021/03/01 03:32:55;;;;;;;2.60;2.20;;;11.30;76.10;;;;;;5134523;27;20127;-41
2021/03/01 03:35:21;;;;;;;2.72;2.17;;;11.30;76.10;;;;;;5134115;27;20118;-41
2021/03/01 03:37:54;;;;;;;2.70;2.10;;;11.30;76.10;;;;;;5134442;27;20063;-42
2021/03/01 03:40:20;;;;;;;2.75;2.10;;;11.40;76.20;;;;;;5134865;27;20070;-41
2021/03/01 03:42:48;;;;;;;3.42;2.40;;;11.40;76.20;;;;;;5134651;27;20043;-41
2021/03/01 03:45:16;;;;;;;3.30;2.53;;;11.40;76.20;;;;;;5134145;27;20055;-38
2021/03/01 03:47:46;;;;;;;2.60;2.13;;;11.30;76.80;;;;;;5133868;27;20133;-39
2021/03/01 03:50:13;;;;;;;2.20;2.00;;;11.30;76.20;;;;;;5134126;27;20392;-42
2021/03/01 03:52:42;;;;;;;2.58;2.05;;;11.30;76.80;;;;;;5134471;27;20398;-40
2021/03/01 03:55:13;;;;;;;2.58;2.25;;;11.30;76.10;;;;;;5134293;27;20047;-41
2021/03/01 03:57:41;;;;;;;3.53;2.55;;;11.40;76.20;;;;;;5134218;27;20394;-42
2021/03/01 04:00:11;;;;;;;2.90;2.15;;;11.30;76.80;;;;;;5134112;27;20122;-41
2021/03/01 04:02:39;;;;;;;3.25;2.42;;;11.30;76.20;;;;;;5134250;27;20114;-40
2021/03/01 04:05:07;;;;;;;2.42;2.22;;;11.30;76.20;;;;;;5133979;27;20426;-41
2021/03/01 04:07:36;;;;;;;3.08;2.60;;;11.30;76.20;;;;;;5133952;27;20050;-42
2021/03/01 04:10:04;;;;;;;3.05;2.42;;;11.30;76.20;;;;;;5134276;27;20039;-41
2021/03/01 04:12:31;;;;;;;3.50;2.40;;;11.30;76.10;;;;;;5134687;27;20491;-39
2021/03/01 04:14:59;;;;;;;3.10;2.00;;;11.30;76.20;;;;;;5134015;27;20047;-38
2021/03/01 04:17:26;;;;;;;2.40;1.95;;;11.30;76.20;;;;;;5119539;27;20031;-41
2021/03/01 04:19:54;;;;;;;3.35;2.45;;;11.30;76.20;;;;;;5134236;27;20047;-42
2021/03/01 04:22:21;;;;;;;3.05;2.35;;;11.30;76.10;;;;;;5133762;27;20058;-41
2021/03/01 04:24:50;;;;;;;2.72;2.22;;;11.30;76.10;;;;;;5133664;27;20479;-40
2021/03/01 04:27:17;;;;;;;2.85;2.20;;;11.30;76.20;;;;;;5134120;27;20116;-42
2021/03/01 04:29:43;;;;;;;2.45;2.05;;;11.30;76.20;;;;;;5133142;27;20043;-42
2021/03/01 04:32:10;;;;;;;3.33;2.25;;;11.30;76.20;;;;;;5133251;27;20039;-40
2021/03/01 04:34:37;;;;;;;2.47;2.05;;;11.30;76.10;;;;;;5134057;27;20043;-43
2021/03/01 04:37:03;;;;;;;3.08;2.30;;;11.30;76.10;;;;;;5133592;28;20507;-45
2021/03/01 04:39:29;;;;;;;3.13;2.28;;;11.30;76.20;;;;;;5133609;28;20054;-45
2021/03/01 04:41:55;;;;;;;2.70;2.20;;;11.30;76.20;;;;;;5133879;27;20437;-44
2021/03/01 04:44:22;;;;;;;3.08;1.98;;;11.30;76.20;;;;;;5133585;27;20067;-41
2021/03/01 04:46:52;;;;;;;2.13;1.92;;;11.30;76.20;;;;;;5132826;27;20100;-43
2021/03/01 04:49:18;;;;;;;2.85;2.28;;;11.30;76.80;;;;;;5133468;27;20498;-42
2021/03/01 04:51:44;;;;;;;2.40;2.15;;;11.30;76.20;;;;;;5132985;27;20039;-42
2021/03/01 04:54:11;;;;;;;2.83;2.25;;;11.30;76.20;;;;;;5134057;28;20596;-41
2021/03/01 04:56:42;;;;;;;2.75;2.17;;;11.30;76.20;;;;;;5133626;28;20122;-45
2021/03/01 04:59:09;;;;;;;3.15;2.25;;;11.30;76.20;;;;;;5133461;27;20501;-41
2021/03/01 05:01:37;;;;;;;2.35;2.05;;;11.30;76.20;;;;;;5133180;27;20116;-40
2021/03/01 05:04:04;;;;;;;2.70;2.03;;;11.30;76.20;;;;;;5112919;28;20092;-41
2021/03/01 05:06:30;;;;;;;3.28;2.13;;;11.30;76.20;;;;;;5113768;28;20050;-41
2021/03/01 05:08:55;;;;;;;2.30;1.88;;;11.30;76.20;;;;;;5133479;27;20047;-42
2021/03/01 05:11:38;;;;;;;2.97;2.30;;;11.30;76.20;;;;;;5133324;28;20046;-40
2021/03/01 05:14:06;;;;;;;2.15;1.92;;;11.30;76.20;;;;;;5133059;27;20054;-44
2021/03/01 05:16:32;;;;;;;2.88;2.00;;;11.30;76.20;;;;;;5133802;27;20043;-41
2021/03/01 05:18:59;;;;;;;2.67;1.98;;;11.30;76.20;;;;;;5132763;27;20051;-42
2021/03/01 05:21:26;;;;;;;2.03;1.83;;;11.30;76.20;;;;;;5132935;27;20035;-45
2021/03/01 05:23:52;;;;;;;2.55;2.15;;;11.30;76.20;;;;;;5133535;27;20046;-43
2021/03/01 05:26:19;;;;;;;3.03;2.30;;;11.30;76.20;;;;;;5133024;27;20372;-42
2021/03/01 05:28:45;;;;;;;2.10;1.75;;;11.30;76.20;;;;;;5133121;28;20053;-41
2021/03/01 05:31:12;;;;;;;2.22;1.92;;;11.30;76.20;;;;;;5132735;27;20047;-40
2021/03/01 05:33:37;;;;;;;2.95;2.00;;;11.30;76.20;;;;;;5133000;27;20050;-41
2021/03/01 05:36:04;;;;;;;2.20;1.70;;;11.30;76.20;;;;;;5133365;28;20403;-40
2021/03/01 05:38:30;;;;;;;2.85;2.25;;;11.30;76.10;;;;;;5133050;27;20047;-40
2021/03/01 05:40:57;;;;;;;2.70;2.20;;;11.30;76.20;;;;;;5134838;27;20483;-40
2021/03/01 05:43:26;;;;;;;1.92;1.70;;;11.20;76.10;;;;;;5136808;27;20491;-40
2021/03/01 05:45:53;;;;;;;2.50;2.20;;;11.30;76.20;;;;;;5137222;27;20039;-40
2021/03/01 05:48:23;;;;;;;2.28;1.90;;;11.30;76.20;;;;;;5136515;27;20122;-40
2021/03/01 05:50:58;;;;;;;2.15;1.95;;;11.30;76.20;;;;;;5136583;27;20054;-39
2021/03/01 05:53:32;;;;;;;2.35;2.08;;;11.30;76.20;;;;;;5136278;27;20039;-38
2021/03/01 05:55:59;;;;;;;2.65;2.05;;;11.30;76.20;;;;;;5136807;27;20407;-39
2021/03/01 05:58:29;;;;;;;1.92;1.70;;;11.30;76.20;;;;;;5136722;27;20043;-40
2021/03/01 06:01:05;;;;;;;2.50;2.30;;;11.30;76.80;;;;;;5136697;27;20048;-41
2021/03/01 06:03:32;;;;;;;2.10;1.90;;;11.30;76.20;;;;;;5136388;27;20043;-41
2021/03/01 06:05:58;;;;;;;2.17;1.83;;;11.30;76.20;;;;;;5136518;27;20047;-41
2021/03/01 06:08:25;;;;;;;2.30;1.90;;;11.20;76.10;;;;;;5136415;27;20043;-40
2021/03/01 06:11:03;;;;;;;3.10;2.10;;;11.30;76.20;;;;;;5136731;27;20043;-40
2021/03/01 06:13:29;;;;;;;2.40;1.92;;;11.30;76.20;;;;;;5136123;27;20051;-39
2021/03/01 06:15:58;;;;;;;2.47;1.85;;;11.20;76.10;;;;;;5135911;27;20406;-40
2021/03/01 06:18:25;;;;;;;2.08;1.70;;;11.20;76.10;;;;;;5135577;27;20058;-41
2021/03/01 06:20:52;;;;;;;2.40;1.83;;;11.20;76.10;;;;;;5135007;27;20042;-41
2021/03/01 06:23:32;;;;;;;2.40;1.90;;;11.20;76.10;;;;;;5135375;27;20096;-40
2021/03/01 06:26:25;;;;;;;2.85;2.10;;;11.20;76.10;;;;;;5134543;27;20092;-40
2021/03/01 06:28:54;;;;;;;2.35;1.80;;;11.20;76.10;;;;;;5135407;27;20051;-42
2021/03/01 06:31:45;;;;;;;2.55;1.90;;;11.20;76.10;;;;;;5135961;27;20120;-41
2021/03/01 06:34:26;;;;;;;2.72;1.85;;;11.20;76.10;;;;;;5136311;27;20043;-43
2021/03/01 06:37:09;;;;;;;2.60;2.05;;;11.20;76.10;;;;;;5135057;27;20562;-42
2021/03/01 06:39:51;;;;;;;2.35;1.75;;;11.20;76.10;;;;;;5135808;27;20047;-40
2021/03/01 06:42:17;;;;;;;2.55;2.03;;;11.20;76.10;;;;;;5135775;27;20039;-40
2021/03/01 06:44:46;;;;;;;2.40;1.92;;;11.20;76.10;;;;;;5135170;27;20054;-41
2021/03/01 06:47:12;;;;;;;2.33;2.03;;;11.20;76.10;;;;;;5135481;27;20039;-41
2021/03/01 06:49:40;;;;;;;2.10;1.75;;;11.20;76.10;;;;;;5136095;27;20095;-42
2021/03/01 06:52:06;;;;;;;2.60;2.13;;;11.20;76.10;;;;;;5135242;27;20039;-40
2021/03/01 06:54:32;;;;;;;4.07;2.30;;;11.20;76.10;;;;;;5135355;27;20495;-41
2021/03/01 06:56:59;;;;;;;2.35;2.03;;;11.20;76.10;;;;;;5135609;27;20050;-42
2021/03/01 06:59:25;;;;;;;3.13;2.03;;;11.20;76.10;;;;;;5135789;27;20554;-41
2021/03/01 07:01:55;;;;;;;2.55;2.05;;;11.20;76.10;;;;;;5135502;27;20074;-40
2021/03/01 07:04:25;;;;;;;3.25;2.38;;;11.20;76.10;;;;;;5135281;27;20491;-41
2021/03/01 07:06:54;;;;;;;3.72;2.53;;;11.20;76.10;;;;;;5135452;27;20046;-41
2021/03/01 07:09:25;;;;;;;2.60;1.80;;;11.20;76.10;;;;;;5135571;27;20043;-42
2021/03/01 07:11:51;;;;;;;3.75;2.30;;;11.20;76.10;;;;;;5135546;27;20039;-38
2021/03/01 07:14:19;;;;;;;2.95;2.00;;;11.20;76.10;;;;;;5135315;27;20046;-38
2021/03/01 07:16:53;;;;;;;2.42;1.70;;;11.20;76.10;;;;;;5134775;27;20047;-39
2021/03/01 07:19:33;;;;;;;2.88;2.00;;;11.20;76.10;;;;;;5135199;27;20065;-39
2021/03/01 07:22:07;;;;;;;2.10;1.70;;;11.20;76.10;;;;;;5134986;27;20047;-39
2021/03/01 07:24:33;;;;;;;3.10;1.85;;;11.20;76.10;;;;;;5135034;27;20057;-39
2021/03/01 07:27:04;;;;;;;2.63;2.00;;;11.20;76.10;;;;;;5134782;27;20049;-40
2021/03/01 07:29:37;;;;;;;2.75;1.98;;;11.20;76.10;;;;;;5133879;27;20443;-39
2021/03/01 07:32:07;;;;;;;3.17;2.15;;;11.20;76.10;;;;;;5134821;27;20054;-39
2021/03/01 07:34:34;;;;;;;2.67;2.03;;;11.20;76.10;;;;;;5134821;27;20061;-38
2021/03/01 07:37:01;;;;;;;3.45;2.40;;;11.20;76.10;;;;;;5134427;27;20118;-39
2021/03/01 07:39:29;;;;;;;3.03;2.25;;;11.20;76.20;;;;;;5134453;27;20049;-40
2021/03/01 07:41:55;;;;;;;2.40;2.08;;;11.20;76.20;;;;;;5134610;27;20054;-39
2021/03/01 07:44:32;;;;;;;4.30;2.58;;;11.20;76.10;;;;;;5134726;27;20039;-40
2021/03/01 07:47:01;;;;;;;3.25;2.13;;;11.20;76.10;;;;;;5134316;27;20046;-39
2021/03/01 07:49:56;;;;;;;3.38;2.17;;;11.20;76.10;;;;;;5134829;27;20047;-39
2021/03/01 07:52:24;;;;;;;3.00;2.25;;;11.20;76.10;;;;;;5091129;28;20051;-40
2021/03/01 07:54:53;;;;;;;4.32;2.42;;;11.20;76.10;;;;;;5090996;28;20078;-39
2021/03/01 07:57:23;;;;;;;2.90;2.13;;;11.20;76.10;;;;;;5091128;28;20496;-37
2021/03/01 07:59:49;;;;;;;3.95;2.08;;;11.20;76.10;;;;;;5091014;28;20135;-40
2021/03/01 08:02:33;;;;;;;3.25;2.17;;;11.20;76.10;;;;;;5090747;28;20974;-40
2021/03/01 08:05:18;;;;;;;3.38;2.30;;;11.20;76.10;;;;;;5089425;28;20443;-39
2021/03/01 08:07:44;;;;;;;3.63;2.35;;;11.20;76.20;;;;;;5091224;28;20109;-38
2021/03/01 08:10:31;;;;;;;4.10;2.60;;;11.20;76.10;;;;;;5090474;28;20050;-38
2021/03/01 08:13:02;;;;;;;4.53;2.28;;;11.20;76.10;;;;;;5076971;28;20107;-38
2021/03/01 08:15:43;;;;;;;4.85;2.78;;;11.20;76.10;;;;;;5090667;28;20543;-37
2021/03/01 08:18:14;;;;;;;4.68;2.42;;;11.20;76.20;;;;;;5090817;28;20047;-40
2021/03/01 08:20:52;;;;;;;5.10;2.47;;;11.20;76.20;;;;;;5090885;28;20048;-44
2021/03/01 08:23:19;;;;;;;5.55;3.05;;;11.20;76.10;;;;;;5070766;28;20056;-41
2021/03/01 08:25:46;;;;;;;4.43;2.80;;;11.20;76.20;;;;;;5070182;28;20076;-43
2021/03/01 08:28:20;;;;;;;4.25;2.65;;;11.20;76.20;;;;;;5081948;28;20138;-42
2021/03/01 08:30:47;;;;;;;5.37;2.80;;;11.20;76.20;;;;;;5113568;28;20071;-42
2021/03/01 08:33:13;;;;;;;4.45;2.92;;;11.20;76.20;;;;;;5113341;28;20483;-44
2021/03/01 08:35:46;;;;;;;4.07;2.58;;;11.20;76.20;;;;;;5113510;28;20089;-40
2021/03/01 08:38:14;;;;;;;5.25;2.92;;;11.20;76.20;;;;;;5113200;28;20066;-44
2021/03/01 08:40:54;;;;;;;5.63;2.80;;;11.20;76.10;;;;;;5112839;28;20509;-41
2021/03/01 08:43:48;;;;;;;4.15;2.63;;;11.20;76.10;;;;;;5113238;28;20442;-44
2021/03/01 08:46:14;;;;;;;4.80;2.53;;;11.20;76.20;;;;;;5113332;28;20039;-42
2021/03/01 08:48:42;;;;;;;5.50;3.05;;;11.10;76.20;;;;;;5113289;28;20050;-39
2021/03/01 08:51:09;;;;;;;4.97;2.80;;;11.20;76.20;;;;;;5113222;28;20051;-41
2021/03/01 08:53:35;;;;;;;4.47;2.75;;;11.20;76.20;;;;;;5113353;28;20052;-39
2021/03/01 08:56:02;;;;;;;5.35;3.15;;;11.20;76.20;;;;;;5112919;28;20100;-39
2021/03/01 08:58:35;;;;;;;4.75;3.10;;;11.20;76.20;;;;;;5123824;28;20042;-39
2021/03/01 09:01:07;;;;;;;3.47;2.05;;;11.20;76.20;;;;;;5133555;27;20551;-38
2021/03/01 09:03:34;;;;;;;4.80;2.90;;;11.20;76.20;;;;;;5133793;27;20405;-40
2021/03/01 09:06:06;;;;;;;4.78;2.60;;;11.20;76.20;;;;;;5133895;27;20391;-39
2021/03/01 09:08:41;;;;;;;3.47;2.03;;;11.20;76.20;;;;;;5134000;27;20051;-38
2021/03/01 09:11:15;;;;;;;4.60;2.38;;;11.20;76.20;;;;;;5133191;27;20112;-42
2021/03/01 09:13:43;;;;;;;4.50;2.78;;;11.20;76.10;;;;;;5133430;28;20047;-38
2021/03/01 09:16:14;;;;;;;3.55;2.65;;;11.20;76.20;;;;;;5135542;27;20066;-39
2021/03/01 09:18:43;;;;;;;3.65;2.55;;;11.20;76.20;;;;;;5137670;27;20043;-43
2021/03/01 09:21:12;;;;;;;4.20;2.47;;;11.20;76.20;;;;;;5137492;27;20054;-38
2021/03/01 09:23:49;;;;;;;4.85;2.80;;;11.20;76.20;;;;;;5137475;27;20554;-38
2021/03/01 09:26:34;;;;;;;3.53;2.60;;;11.20;76.20;;;;;;5137098;27;20047;-41
2021/03/01 09:29:09;;;;;;;3.25;2.22;;;11.20;76.10;;;;;;5137274;27;20615;-44
2021/03/01 09:31:42;;;;;;;5.10;2.40;;;11.20;76.20;;;;;;5137609;27;20057;-38
2021/03/01 09:34:09;;;;;;;4.25;2.85;;;11.20;76.10;;;;;;5137381;27;20403;-43
2021/03/01 09:36:35;;;;;;;4.35;2.50;;;11.20;76.10;;;;;;5137207;27;20127;-44
2021/03/01 09:39:02;;;;;;;4.30;2.40;;;11.20;76.10;;;;;;5137063;27;20040;-40
2021/03/01 09:41:36;;;;;;;5.32;2.95;;;11.20;76.10;;;;;;5136438;27;20035;-42
2021/03/01 09:44:02;;;;;;;5.47;2.90;;;11.20;76.10;;;;;;5136514;27;20046;-42
2021/03/01 09:46:29;;;;;;;4.22;3.17;;;11.20;76.10;;;;;;5136748;27;20043;-41
2021/03/01 09:48:59;;;;;;;4.30;2.05;;;11.20;76.20;;;;;;5137191;27;20047;-43
2021/03/01 09:51:28;;;;;;;4.32;2.58;;;11.20;76.20;;;;;;5136587;27;20501;-40
2021/03/01 09:53:54;;;;;;;4.57;2.75;;;11.20;76.20;;;;;;5136740;27;20126;-42
2021/03/01 09:56:19;;;;;;;4.88;2.53;;;11.20;76.10;;;;;;5136500;27;20051;-43
2021/03/01 09:58:46;;;;;;;3.08;1.90;;;11.20;76.20;;;;;;5136664;27;20407;-44
2021/03/01 10:01:18;;;;;;;3.17;2.35;;;11.20;76.10;;;;;;5136615;27;20055;-42
2021/03/01 10:03:47;;;;;;;4.40;2.67;;;11.20;76.10;;;;;;5136595;27;20122;-41
2021/03/01 10:06:16;;;;;;;4.03;2.55;;;11.20;76.20;;;;;;5136709;27;20105;-44
2021/03/01 10:08:43;;;;;;;4.72;2.65;;;11.20;76.10;;;;;;5136475;27;20114;-41
2021/03/01 10:11:24;;;;;;;3.28;2.28;;;11.20;76.20;;;;;;5136582;27;20054;-41
2021/03/01 10:13:50;;;;;;;4.10;2.50;;;11.20;76.10;;;;;;5135764;27;20479;-43
2021/03/01 10:16:36;;;;;;;3.95;2.33;;;11.20;76.20;;;;;;5136365;27;20043;-41
2021/03/01 10:19:11;;;;;;;4.90;2.38;;;11.20;76.10;;;;;;5136473;27;20077;-43
2021/03/01 10:21:37;;;;;;;4.03;2.63;;;11.20;76.10;;;;;;5136420;27;20518;-43
2021/03/01 10:24:06;;;;;;;4.95;2.55;;;11.20;76.10;;;;;;5135997;27;20047;-40
2021/03/01 10:26:32;;;;;;;2.60;2.10;;;11.20;76.10;;;;;;5135872;27;20444;-42
2021/03/01 10:29:01;;;;;;;4.18;2.30;;;11.20;76.10;;;;;;5136001;27;20047;-43
2021/03/01 10:31:33;;;;;;;2.78;2.13;;;11.20;76.10;;;;;;5136287;27;20479;-43
2021/03/01 10:34:02;;;;;;;4.05;2.53;;;11.20;76.10;;;;;;5135763;27;20066;-44
2021/03/01 10:36:52;;;;;;;2.55;1.95;;;11.20;76.10;;;;;;5135931;27;20057;-41
2021/03/01 10:39:36;;;;;;;3.35;2.28;;;11.20;76.10;;;;;;5136140;27;20053;-42
2021/03/01 10:42:11;;;;;;;3.22;2.38;;;11.20;76.10;;;;;;5136190;27;20047;-42
2021/03/01 10:44:43;;;;;;;5.35;2.10;;;11.20;76.10;;;;;;5135264;27;20131;-42
2021/03/01 10:47:16;;;;;;;3.38;1.90;;;11.10;76.10;;;;;;5136120;27;20100;-43
2021/03/01 10:49:44;;;;;;;3.33;2.08;;;11.30;76.10;;;;;;5135871;27;20125;-41
2021/03/01 10:52:12;;;;;;;4.25;2.33;;;11.20;76.10;;;;;;5135884;27;20054;-42
2021/03/01 10:54:38;;;;;;;3.40;2.45;;;11.20;76.10;;;;;;5135482;27;20063;-46
2021/03/01 10:57:05;;;;;;;3.50;2.03;;;11.20;76.10;;;;;;5135439;27;20047;-42
2021/03/01 10:59:30;;;;;;;3.35;2.35;;;11.20;76.10;;;;;;5135303;27;20050;-43
2021/03/01 11:01:56;;;;;;;2.83;2.13;;;11.20;76.10;;;;;;5135727;27;20077;-42
2021/03/01 11:04:22;;;;;;;4.25;2.30;;;11.20;76.10;;;;;;5135427;27;20514;-43
2021/03/01 11:06:49;;;;;;;3.40;2.30;;;11.20;76.10;;;;;;5135182;27;20158;-41
2021/03/01 11:09:16;;;;;;;2.97;1.92;;;11.20;76.10;;;;;;5135235;27;20043;-40
2021/03/01 11:11:42;;;;;;;2.65;2.10;;;11.20;76.10;;;;;;5135444;27;20494;-42
2021/03/01 11:14:09;;;;;;;3.28;2.25;;;11.20;76.10;;;;;;5135222;27;20050;-42
2021/03/01 11:16:35;;;;;;;3.15;1.73;;;11.20;76.10;;;;;;5134866;27;20414;-41
2021/03/01 11:19:01;;;;;;;3.20;1.88;;;11.20;76.10;;;;;;5135164;27;20040;-40
2021/03/01 11:21:27;;;;;;;2.90;1.90;;;11.20;76.10;;;;;;5135265;27;20047;-42
2021/03/01 11:23:53;;;;;;;3.10;2.08;;;11.20;76.00;;;;;;5135242;27;20055;-41
2021/03/01 11:26:19;;;;;;;3.13;2.15;;;11.20;76.00;;;;;;5134767;27;20866;-39
2021/03/01 11:28:45;;;;;;;3.13;2.05;;;11.20;76.10;;;;;;5134857;27;20055;-43
2021/03/01 11:31:12;;;;;;;3.13;2.67;;;11.30;76.10;;;;;;5134899;27;20043;-42
2021/03/01 11:33:39;;;;;;;2.88;1.88;;;11.20;76.00;;;;;;5134891;27;20542;-40
2021/03/01 11:36:06;;;;;;;2.50;1.80;;;11.20;76.00;;;;;;5134923;27;20131;-43
2021/03/01 11:38:31;;;;;;;1.83;1.50;;;11.20;76.00;;;;;;5133711;27;20043;-42
2021/03/01 11:40:58;;;;;;;3.15;1.67;;;11.20;76.00;;;;;;5134619;27;20140;-43
2021/03/01 11:43:24;;;;;;;2.63;1.75;;;11.20;76.00;;;;;;5134753;27;20491;-42
2021/03/01 11:45:50;;;;;;;3.00;1.90;;;11.20;76.00;;;;;;5134657;27;20047;-46
2021/03/01 11:48:17;;;;;;;3.17;2.10;;;11.20;76.00;;;;;;5134481;27;20053;-46
2021/03/01 11:50:46;;;;;;;3.08;1.92;;;11.20;76.00;;;;;;5134828;27;20100;-43
2021/03/01 11:53:14;;;;;;;3.03;1.75;;;11.20;76.00;;;;;;5134747;27;20039;-42
2021/03/01 11:55:40;;;;;;;3.25;1.90;;;11.20;76.00;;;;;;5134777;27;20042;-42
2021/03/01 11:58:06;;;;;;;2.78;2.20;;;11.30;76.10;;;;;;5134404;27;20096;-42
2021/03/01 12:00:32;;;;;;;3.30;1.85;;;11.20;76.70;;;;;;5134062;27;20051;-42
2021/03/01 12:02:58;;;;;;;2.42;1.50;;;11.20;76.00;;;;;;5134080;27;20055;-43
2021/03/01 12:05:24;;;;;;;2.22;1.58;;;11.30;76.10;;;;;;5134511;27;20043;-41
2021/03/01 12:07:50;;;;;;;2.17;1.63;;;11.30;76.10;;;;;;5134504;27;20100;-42
2021/03/01 12:10:16;;;;;;;2.90;1.63;;;11.30;76.00;;;;;;5133860;27;20042;-44
2021/03/01 12:12:42;;;;;;;2.50;1.85;;;11.30;76.10;;;;;;5133919;27;20043;-42
2021/03/01 12:15:08;;;;;;;2.30;1.73;;;11.30;76.00;;;;;;5134133;27;20475;-42
2021/03/01 12:17:35;;;;;;;3.13;1.70;;;11.30;76.00;;;;;;5133985;27;20673;-42
2021/03/01 12:20:00;;;;;;;2.30;1.65;;;11.30;76.00;;;;;;5133977;27;20031;-41
2021/03/01 12:22:27;;;;;;;2.53;1.63;;;11.30;76.00;;;;;;5134123;27;20535;-41
2021/03/01 12:24:52;;;;;;;2.35;1.75;;;11.30;76.00;;;;;;5134243;27;20554;-40
2021/03/01 12:27:18;;;;;;;2.97;1.70;;;11.30;76.00;;;;;;5133974;27;20126;-41
2021/03/01 12:29:44;;;;;;;2.92;1.85;;;11.30;76.00;;;;;;5134064;27;20043;-42
2021/03/01 12:32:10;;;;;;;2.13;1.40;;;11.30;76.00;;;;;;5133325;27;20047;-41
2021/03/01 12:34:39;;;;;;;2.45;1.80;;;11.30;76.00;;;;;;5134161;27;20047;-40
2021/03/01 12:37:06;;;;;;;1.75;1.35;;;11.40;76.00;;;;;;5133953;27;20514;-42
2021/03/01 12:39:32;;;;;;;2.72;2.08;;;11.30;75.90;;;;;;5134012;27;20123;-44
2021/03/01 12:41:57;;;;;;;2.30;1.80;;;11.30;75.90;;;;;;5133430;27;20402;-41
2021/03/01 12:44:23;;;;;;;2.22;1.55;;;11.30;75.90;;;;;;5133815;28;20041;-42
2021/03/01 12:46:49;;;;;;;2.25;1.95;;;11.30;75.90;;;;;;5134054;28;20071;-43
2021/03/01 12:49:15;;;;;;;3.33;1.65;;;11.30;75.90;;;;;;5133794;27;20483;-41
2021/03/01 12:51:42;;;;;;;2.10;1.50;;;11.30;75.90;;;;;;5137795;27;20047;-41
2021/03/01 12:54:09;;;;;;;2.42;1.77;;;11.30;75.90;;;;;;5138339;27;20113;-42
2021/03/01 12:56:34;;;;;;;2.15;1.77;;;11.40;75.90;;;;;;5137833;27;20043;-42